createdAt,value
2022-09-10T00:00:13.070Z,5.10
2022-09-10T00:01:13.033Z,5.10
2022-09-10T00:02:13.307Z,5.50
2022-09-10T00:03:13.036Z,4.20
2022-09-10T00:04:13.667Z,6.00
2022-09-10T00:05:12.971Z,7.10
2022-09-10T00:06:12.949Z,4.80
2022-09-10T00:07:12.959Z,6.40
2022-09-10T00:08:12.903Z,4.10
2022-09-10T00:09:12.903Z,4.80
2022-09-10T00:10:12.908Z,4.40
2022-09-10T00:11:12.882Z,5.80
2022-09-10T00:12:12.897Z,6.20
2022-09-10T00:13:12.844Z,3.90
2022-09-10T00:14:12.865Z,5.00
2022-09-10T00:15:12.836Z,5.70
2022-09-10T00:16:12.883Z,4.30
2022-09-10T00:17:12.872Z,7.50
2022-09-10T00:18:12.807Z,7.30
2022-09-10T00:19:12.823Z,5.50
2022-09-10T00:20:12.867Z,6.40
2022-09-10T00:21:12.989Z,5.50
2022-09-10T00:22:12.781Z,4.70
2022-09-10T00:23:12.771Z,6.80
2022-09-10T00:24:12.742Z,3.70
2022-09-10T00:25:12.763Z,3.00
2022-09-10T00:26:13.660Z,3.60
2022-09-10T00:27:12.981Z,4.00
2022-09-10T00:28:14.131Z,3.40
2022-09-10T00:29:12.679Z,4.40
2022-09-10T00:30:12.828Z,5.80
2022-09-10T00:31:13.251Z,3.60
2022-09-10T00:32:13.096Z,2.80
2022-09-10T00:33:14.400Z,4.20
2022-09-10T00:34:12.935Z,3.80
2022-09-10T00:35:12.839Z,4.40
2022-09-10T00:36:12.603Z,4.90
2022-09-10T00:37:13.196Z,5.90
2022-09-10T00:38:12.620Z,6.10
2022-09-10T00:39:12.526Z,3.80
2022-09-10T00:40:12.525Z,6.20
2022-09-10T00:41:12.520Z,3.00
2022-09-10T00:42:12.497Z,7.80
2022-09-10T00:43:12.514Z,4.40
2022-09-10T00:44:12.504Z,1.70
2022-09-10T00:45:12.521Z,3.90
2022-09-10T00:46:12.469Z,3.30
2022-09-10T00:47:12.474Z,4.10
2022-09-10T00:48:12.444Z,6.90
2022-09-10T00:49:12.436Z,6.10
2022-09-10T00:50:12.709Z,6.10
2022-09-10T00:51:12.424Z,4.60
2022-09-10T00:52:12.409Z,4.00
2022-09-10T00:53:12.440Z,3.90
2022-09-10T00:54:12.437Z,3.40
2022-09-10T00:55:13.349Z,5.00
2022-09-10T00:56:13.445Z,3.10
2022-09-10T00:57:12.326Z,3.70
2022-09-10T00:58:12.302Z,4.10
2022-09-10T00:59:12.297Z,4.00
2022-09-10T01:00:12.306Z,5.50
2022-09-10T01:01:12.303Z,5.20
2022-09-10T01:02:12.401Z,4.50
2022-09-10T01:03:13.054Z,3.40
2022-09-10T01:04:12.269Z,4.40
2022-09-10T01:05:12.294Z,5.50
2022-09-10T01:06:12.205Z,3.50
2022-09-10T01:07:12.194Z,3.60
2022-09-10T01:08:12.217Z,2.90
2022-09-10T01:09:12.217Z,4.20
2022-09-10T01:10:12.177Z,5.80
2022-09-10T01:11:12.173Z,5.20
2022-09-10T01:12:12.162Z,8.50
2022-09-10T01:13:12.141Z,5.80
2022-09-10T01:14:12.110Z,5.30
2022-09-10T01:15:12.151Z,4.90
2022-09-10T01:16:12.144Z,4.00
2022-09-10T01:17:12.130Z,5.40
2022-09-10T01:18:12.071Z,8.20
2022-09-10T01:19:12.051Z,8.50
2022-09-10T01:20:12.033Z,4.20
2022-09-10T01:21:12.029Z,3.00
2022-09-10T01:22:12.776Z,4.20
2022-09-10T01:23:17.053Z,5.20
2022-09-10T01:24:14.214Z,3.80
2022-09-10T01:25:12.548Z,5.30
2022-09-10T01:26:12.445Z,3.90
2022-09-10T01:27:11.998Z,5.70
2022-09-10T01:28:12.467Z,4.50
2022-09-10T01:29:12.811Z,4.20
2022-09-10T01:30:12.238Z,6.00
2022-09-10T01:31:12.417Z,4.70
2022-09-10T01:32:12.793Z,3.90
2022-09-10T01:33:11.991Z,5.00
2022-09-10T01:34:14.069Z,9.80
2022-09-10T01:35:12.046Z,6.00
2022-09-10T01:36:11.863Z,5.10
2022-09-10T01:37:11.863Z,6.70
2022-09-10T01:38:12.839Z,4.30
2022-09-10T01:39:11.808Z,4.40
2022-09-10T01:40:11.838Z,5.20
2022-09-10T01:41:12.063Z,5.90
2022-09-10T01:42:11.782Z,3.00
2022-09-10T01:43:11.849Z,6.90
2022-09-10T01:44:11.756Z,5.40
2022-09-10T01:45:11.756Z,7.40
2022-09-10T01:46:12.557Z,8.50
2022-09-10T01:47:11.718Z,5.30
2022-09-10T01:48:11.776Z,3.30
2022-09-10T01:49:11.691Z,7.00
2022-09-10T01:50:11.671Z,4.60
2022-09-10T01:51:11.701Z,4.30
2022-09-10T01:52:11.665Z,4.40
2022-09-10T01:53:11.639Z,4.10
2022-09-10T01:54:45.678Z,3.20
2022-09-10T01:55:12.800Z,4.80
2022-09-10T01:56:11.726Z,4.70
2022-09-10T01:57:13.034Z,4.40
2022-09-10T01:58:11.668Z,4.80
2022-09-10T01:59:12.660Z,7.80
2022-09-10T02:00:11.604Z,5.10
2022-09-10T02:01:11.683Z,7.10
2022-09-10T02:02:11.756Z,6.80
2022-09-10T02:03:11.576Z,9.10
2022-09-10T02:04:11.545Z,6.40
2022-09-10T02:05:11.608Z,6.20
2022-09-10T02:06:11.599Z,6.40
2022-09-10T02:07:11.536Z,3.40
2022-09-10T02:08:11.549Z,4.10
2022-09-10T02:09:12.257Z,8.20
2022-09-10T02:10:11.484Z,5.50
2022-09-10T02:11:11.501Z,4.50
2022-09-10T02:12:11.533Z,7.20
2022-09-10T02:13:11.453Z,5.70
2022-09-10T02:14:11.413Z,6.30
2022-09-10T02:15:11.480Z,4.90
2022-09-10T02:16:11.501Z,5.20
2022-09-10T02:17:11.428Z,4.70
2022-09-10T02:18:11.458Z,5.90
2022-09-10T02:19:11.377Z,5.10
2022-09-10T02:20:11.419Z,5.30
2022-09-10T02:21:43.853Z,8.30
2022-09-10T02:22:11.471Z,5.40
2022-09-10T02:23:11.439Z,7.40
2022-09-10T02:24:11.341Z,7.90
2022-09-10T02:25:11.418Z,7.20
2022-09-10T02:26:11.365Z,6.90
2022-09-10T02:27:11.370Z,7.30
2022-09-10T02:28:12.330Z,6.30
2022-09-10T02:29:11.290Z,6.20
2022-09-10T02:30:11.305Z,7.00
2022-09-10T02:31:11.334Z,5.10
2022-09-10T02:32:11.262Z,4.50
2022-09-10T02:33:11.267Z,7.00
2022-09-10T02:34:11.253Z,5.60
2022-09-10T02:35:11.199Z,6.60
2022-09-10T02:36:11.435Z,7.40
2022-09-10T02:37:11.171Z,4.60
2022-09-10T02:38:11.149Z,8.90
2022-09-10T02:39:11.166Z,7.00
2022-09-10T02:40:11.219Z,6.30
2022-09-10T02:41:11.159Z,5.70
2022-09-10T02:42:11.150Z,6.50
2022-09-10T02:43:11.075Z,7.30
2022-09-10T02:44:11.098Z,5.90
2022-09-10T02:45:11.095Z,6.60
2022-09-10T02:46:11.055Z,8.80
2022-09-10T02:47:11.050Z,5.50
2022-09-10T02:48:10.998Z,6.20
2022-09-10T02:49:11.064Z,6.20
2022-09-10T02:50:11.023Z,7.40
2022-09-10T02:51:10.971Z,7.40
2022-09-10T02:52:11.039Z,5.70
2022-09-10T02:53:10.979Z,8.50
2022-09-10T02:54:11.631Z,6.50
2022-09-10T02:55:10.957Z,7.20
2022-09-10T02:56:10.947Z,7.20
2022-09-10T02:57:10.987Z,6.20
2022-09-10T02:58:10.924Z,6.60
2022-09-10T02:59:10.962Z,7.10
2022-09-10T03:00:11.664Z,11.50
2022-09-10T03:01:10.997Z,7.30
2022-09-10T03:02:10.953Z,8.60
2022-09-10T03:03:10.900Z,7.40
2022-09-10T03:04:10.856Z,7.20
2022-09-10T03:05:10.865Z,6.90
2022-09-10T03:06:10.932Z,6.80
2022-09-10T03:07:10.808Z,6.60
2022-09-10T03:08:10.906Z,6.20
2022-09-10T03:09:10.817Z,8.00
2022-09-10T03:10:10.755Z,7.20
2022-09-10T03:11:11.656Z,8.80
2022-09-10T03:12:10.769Z,11.70
2022-09-10T03:13:10.864Z,7.80
2022-09-10T03:14:10.758Z,5.60
2022-09-10T03:15:10.696Z,9.20
2022-09-10T03:16:10.750Z,9.70
2022-09-10T03:17:10.800Z,7.70
2022-09-10T03:18:10.745Z,8.10
2022-09-10T03:19:10.750Z,8.10
2022-09-10T03:20:11.651Z,6.70
2022-09-10T03:21:10.677Z,8.20
2022-09-10T03:22:10.631Z,8.80
2022-09-10T03:23:10.700Z,8.20
2022-09-10T03:24:10.588Z,7.60
2022-09-10T03:25:10.761Z,9.50
2022-09-10T03:26:10.589Z,7.20
2022-09-10T03:27:10.624Z,8.20
2022-09-10T03:28:10.545Z,9.50
2022-09-10T03:29:10.524Z,10.40
2022-09-10T03:30:10.566Z,9.00
2022-09-10T03:31:10.640Z,7.40
2022-09-10T03:32:10.525Z,10.80
2022-09-10T03:33:10.529Z,9.70
2022-09-10T03:34:10.476Z,9.10
2022-09-10T03:35:10.480Z,6.20
2022-09-10T03:36:10.477Z,10.90
2022-09-10T03:37:10.444Z,9.20
2022-09-10T03:38:10.413Z,14.30
2022-09-10T03:39:10.508Z,8.30
2022-09-10T03:40:11.215Z,10.30
2022-09-10T03:41:10.413Z,9.20
2022-09-10T03:42:10.373Z,10.20
2022-09-10T03:43:11.069Z,6.80
2022-09-10T03:44:10.398Z,9.20
2022-09-10T03:45:10.425Z,6.70
2022-09-10T03:46:10.419Z,9.20
2022-09-10T03:47:10.329Z,9.10
2022-09-10T03:48:10.461Z,11.40
2022-09-10T03:49:11.042Z,11.70
2022-09-10T03:50:10.324Z,8.20
2022-09-10T03:51:10.277Z,8.00
2022-09-10T03:52:11.270Z,9.30
2022-09-10T03:53:10.342Z,11.50
2022-09-10T03:54:10.273Z,10.70
2022-09-10T03:55:10.282Z,8.30
2022-09-10T03:56:10.304Z,9.10
2022-09-10T03:57:10.214Z,10.70
2022-09-10T03:58:10.177Z,12.30
2022-09-10T03:59:10.219Z,9.90
2022-09-10T04:00:10.246Z,10.30
2022-09-10T04:01:10.230Z,12.60
2022-09-10T04:02:10.342Z,13.20
2022-09-10T04:03:10.180Z,9.20
2022-09-10T04:04:11.051Z,10.40
2022-09-10T04:05:10.129Z,12.30
2022-09-10T04:06:10.138Z,10.00
2022-09-10T04:07:10.743Z,8.10
2022-09-10T04:08:10.427Z,11.90
2022-09-10T04:09:10.110Z,12.20
2022-09-10T04:10:10.082Z,9.40
2022-09-10T04:11:10.088Z,10.30
2022-09-10T04:12:10.058Z,13.90
2022-09-10T04:13:10.054Z,8.00
2022-09-10T04:14:10.040Z,9.00
2022-09-10T04:15:10.014Z,10.90
2022-09-10T04:16:10.072Z,9.90
2022-09-10T04:17:10.016Z,15.90
2022-09-10T04:18:09.990Z,9.30
2022-09-10T04:19:10.032Z,10.90
2022-09-10T04:20:09.960Z,10.00
2022-09-10T04:21:09.999Z,11.80
2022-09-10T04:22:09.952Z,14.50
2022-09-10T04:23:09.942Z,11.00
2022-09-10T04:24:09.971Z,10.60
2022-09-10T04:25:09.931Z,10.10
2022-09-10T04:26:09.967Z,11.30
2022-09-10T04:27:09.938Z,12.50
2022-09-10T04:28:09.936Z,9.70
2022-09-10T04:29:09.864Z,8.30
2022-09-10T04:30:09.901Z,9.10
2022-09-10T04:31:09.940Z,13.60
2022-09-10T04:32:09.844Z,10.30
2022-09-10T04:33:09.887Z,10.00
2022-09-10T04:34:09.867Z,11.50
2022-09-10T04:35:09.828Z,10.90
2022-09-10T04:36:09.821Z,11.20
2022-09-10T04:37:09.843Z,8.70
2022-09-10T04:38:09.811Z,13.60
2022-09-10T04:39:09.737Z,12.00
2022-09-10T04:40:09.819Z,8.90
2022-09-10T04:41:09.733Z,10.60
2022-09-10T04:42:09.718Z,15.80
2022-09-10T04:43:09.730Z,6.90
2022-09-10T04:44:09.756Z,12.70
2022-09-10T04:45:09.680Z,10.30
2022-09-10T04:46:09.710Z,9.20
2022-09-10T04:47:09.748Z,9.10
2022-09-10T04:48:09.665Z,8.20
2022-09-10T04:49:09.641Z,9.30
2022-09-10T04:50:10.536Z,8.30
2022-09-10T04:51:17.966Z,8.80
2022-09-10T04:52:11.595Z,7.90
2022-09-10T04:53:09.597Z,8.60
2022-09-10T04:54:09.601Z,8.90
2022-09-10T04:55:09.612Z,8.80
2022-09-10T04:56:09.584Z,8.50
2022-09-10T04:57:09.585Z,8.60
2022-09-10T04:58:09.532Z,9.60
2022-09-10T04:59:09.723Z,8.60
2022-09-10T05:00:09.560Z,7.90
2022-09-10T05:01:09.625Z,8.70
2022-09-10T05:02:09.562Z,8.60
2022-09-10T05:03:09.545Z,10.00
2022-09-10T05:04:09.477Z,10.20
2022-09-10T05:05:10.170Z,11.00
2022-09-10T05:06:09.696Z,10.80
2022-09-10T05:07:09.505Z,11.70
2022-09-10T05:08:09.449Z,10.80
2022-09-10T05:09:09.509Z,9.40
2022-09-10T05:10:09.470Z,11.40
2022-09-10T05:11:10.226Z,8.60
2022-09-10T05:12:09.417Z,9.50
2022-09-10T05:13:09.437Z,11.00
2022-09-10T05:14:09.474Z,11.40
2022-09-10T05:15:09.518Z,11.00
2022-09-10T05:16:09.641Z,9.70
2022-09-10T05:17:09.409Z,11.70
2022-09-10T05:18:10.154Z,8.70
2022-09-10T05:19:10.189Z,10.60
2022-09-10T05:20:09.415Z,12.80
2022-09-10T05:21:09.493Z,10.40
2022-09-10T05:22:10.161Z,11.40
2022-09-10T05:23:09.458Z,10.50
2022-09-10T05:24:09.414Z,10.90
2022-09-10T05:25:09.333Z,15.10
2022-09-10T05:26:10.222Z,9.30
2022-09-10T05:27:10.258Z,14.10
2022-09-10T05:28:09.429Z,14.50
2022-09-10T05:29:09.291Z,12.00
2022-09-10T05:30:09.232Z,14.80
2022-09-10T05:31:09.195Z,12.20
2022-09-10T05:32:10.191Z,12.30
2022-09-10T05:33:09.307Z,9.60
2022-09-10T05:34:09.373Z,10.50
2022-09-10T05:35:09.291Z,9.30
2022-09-10T05:36:09.122Z,8.80
2022-09-10T05:37:09.648Z,10.00
2022-09-10T05:38:09.136Z,10.40
2022-09-10T05:39:09.111Z,15.20
2022-09-10T05:40:09.251Z,11.30
2022-09-10T05:41:09.085Z,12.60
2022-09-10T05:42:09.086Z,10.40
2022-09-10T05:43:09.054Z,10.90
2022-09-10T05:44:09.091Z,7.70
2022-09-10T05:45:09.011Z,8.90
2022-09-10T05:46:09.058Z,8.50
2022-09-10T05:47:09.064Z,11.10
2022-09-10T05:48:09.027Z,11.20
2022-09-10T05:49:08.980Z,11.00
2022-09-10T05:50:09.076Z,8.50
2022-09-10T05:51:09.044Z,11.30
2022-09-10T05:52:08.951Z,9.30
2022-09-10T05:53:08.947Z,12.80
2022-09-10T05:54:08.922Z,9.00
2022-09-10T05:55:08.923Z,11.40
2022-09-10T05:56:08.867Z,8.80
2022-09-10T05:57:08.876Z,11.50
2022-09-10T05:58:08.887Z,9.20
2022-09-10T05:59:08.840Z,13.90
2022-09-10T06:00:08.864Z,11.90
2022-09-10T06:01:08.816Z,12.50
2022-09-10T06:02:08.923Z,12.00
2022-09-10T06:03:09.151Z,9.60
2022-09-10T06:04:08.821Z,10.40
2022-09-10T06:05:08.792Z,10.20
2022-09-10T06:06:08.785Z,12.70
2022-09-10T06:07:08.771Z,9.30
2022-09-10T06:08:09.259Z,12.00
2022-09-10T06:09:08.749Z,11.20
2022-09-10T06:10:08.772Z,11.40
2022-09-10T06:11:08.720Z,12.80
2022-09-10T06:12:08.736Z,7.80
2022-09-10T06:13:08.738Z,13.00
2022-09-10T06:14:08.705Z,11.10
2022-09-10T06:15:08.728Z,12.50
2022-09-10T06:16:08.762Z,8.40
2022-09-10T06:17:08.618Z,11.10
2022-09-10T06:18:08.742Z,10.20
2022-09-10T06:19:08.664Z,11.70
2022-09-10T06:20:08.636Z,14.70
2022-09-10T06:21:08.612Z,9.70
2022-09-10T06:22:08.589Z,13.80
2022-09-10T06:23:08.654Z,8.70
2022-09-10T06:24:08.546Z,8.70
2022-09-10T06:25:08.622Z,13.30
2022-09-10T06:26:08.525Z,8.50
2022-09-10T06:27:08.578Z,9.50
2022-09-10T06:28:08.530Z,12.20
2022-09-10T06:29:08.561Z,8.70
2022-09-10T06:30:08.470Z,8.20
2022-09-10T06:31:08.522Z,13.50
2022-09-10T06:32:08.497Z,13.10
2022-09-10T06:33:08.493Z,10.50
2022-09-10T06:34:08.553Z,9.40
2022-09-10T06:35:08.457Z,12.20
2022-09-10T06:36:08.486Z,14.50
2022-09-10T06:37:08.481Z,13.50
2022-09-10T06:38:09.586Z,12.70
2022-09-10T06:39:08.487Z,14.20
2022-09-10T06:40:08.459Z,11.10
2022-09-10T06:41:09.127Z,18.60
2022-09-10T06:42:09.035Z,19.20
2022-09-10T06:43:08.342Z,23.00
2022-09-10T06:44:08.375Z,24.20
2022-09-10T06:45:08.319Z,23.30
2022-09-10T06:46:19.252Z,21.90
2022-09-10T06:47:55.484Z,22.30
2022-09-10T06:49:10.257Z,22.10
2022-09-10T06:50:08.255Z,24.60
2022-09-10T06:51:08.219Z,19.70
2022-09-10T06:52:09.116Z,18.60
2022-09-10T06:53:08.226Z,22.30
2022-09-10T06:54:08.371Z,25.20
2022-09-10T06:55:08.217Z,20.50
2022-09-10T06:56:08.312Z,19.60
2022-09-10T06:57:08.193Z,27.00
2022-09-10T06:58:08.293Z,26.90
2022-09-10T06:59:08.141Z,31.30
2022-09-10T07:00:08.160Z,26.20
2022-09-10T07:01:14.774Z,23.50
2022-09-10T07:02:08.146Z,26.30
2022-09-10T07:03:08.045Z,23.60
2022-09-10T07:04:08.145Z,21.00
2022-09-10T07:05:09.016Z,22.70
2022-09-10T07:06:08.116Z,20.80
2022-09-10T07:07:08.061Z,21.60
2022-09-10T07:08:08.645Z,24.40
2022-09-10T07:09:08.024Z,24.00
2022-09-10T07:10:08.070Z,24.70
2022-09-10T07:11:08.025Z,22.50
2022-09-10T07:12:07.996Z,24.20
2022-09-10T07:13:08.037Z,21.30
2022-09-10T07:14:07.998Z,23.90
2022-09-10T07:15:08.024Z,25.30
2022-09-10T07:16:08.014Z,25.30
2022-09-10T07:17:07.957Z,22.00
2022-09-10T07:18:07.965Z,22.00
2022-09-10T07:19:07.955Z,21.40
2022-09-10T07:20:07.949Z,21.00
2022-09-10T07:21:07.898Z,21.10
2022-09-10T07:22:07.889Z,23.60
2022-09-10T07:23:11.062Z,23.60
2022-09-10T07:24:08.821Z,23.70
2022-09-10T07:25:07.906Z,21.70
2022-09-10T07:26:07.862Z,18.40
2022-09-10T07:27:07.857Z,22.00
2022-09-10T07:28:07.829Z,19.80
2022-09-10T07:29:07.833Z,19.60
2022-09-10T07:30:09.070Z,19.80
2022-09-10T07:31:07.815Z,20.20
2022-09-10T07:32:11.638Z,20.20
2022-09-10T07:33:08.757Z,21.60
2022-09-10T07:34:07.782Z,17.20
2022-09-10T07:35:08.049Z,18.50
2022-09-10T07:36:07.754Z,23.30
2022-09-10T07:37:07.730Z,19.50
2022-09-10T07:38:07.718Z,21.30
2022-09-10T07:39:07.702Z,21.40
2022-09-10T07:40:07.859Z,17.80
2022-09-10T07:41:07.663Z,20.80
2022-09-10T07:42:07.671Z,21.80
2022-09-10T07:43:07.642Z,19.30
2022-09-10T07:44:07.687Z,17.40
2022-09-10T07:45:07.670Z,22.90
2022-09-10T07:46:07.709Z,19.60
2022-09-10T07:47:07.624Z,21.40
2022-09-10T07:48:07.635Z,16.80
2022-09-10T07:49:07.642Z,23.80
2022-09-10T07:50:07.611Z,20.30
2022-09-10T07:51:07.562Z,19.70
2022-09-10T07:52:07.611Z,15.90
2022-09-10T07:53:07.703Z,16.50
2022-09-10T07:54:07.574Z,19.30
2022-09-10T07:55:07.553Z,17.70
2022-09-10T07:56:07.576Z,17.50
2022-09-10T07:57:07.558Z,16.90
2022-09-10T07:58:07.485Z,23.50
2022-09-10T07:59:07.490Z,21.80
2022-09-10T08:00:07.520Z,17.30
2022-09-10T08:01:08.477Z,18.60
2022-09-10T08:02:07.530Z,19.80
2022-09-10T08:03:07.441Z,18.70
2022-09-10T08:04:07.439Z,16.90
2022-09-10T08:05:07.481Z,16.40
2022-09-10T08:06:07.578Z,11.80
2022-09-10T08:07:07.409Z,17.40
2022-09-10T08:08:07.354Z,19.70
2022-09-10T08:09:08.577Z,17.50
2022-09-10T08:10:07.532Z,18.20
2022-09-10T08:11:11.620Z,16.10
2022-09-10T08:12:08.309Z,15.90
2022-09-10T08:13:07.362Z,12.50
2022-09-10T08:14:08.049Z,14.60
2022-09-10T08:15:07.290Z,14.20
2022-09-10T08:16:07.311Z,11.50
2022-09-10T08:17:07.219Z,13.70
2022-09-10T08:18:07.312Z,13.80
2022-09-10T08:19:07.269Z,11.90
2022-09-10T08:20:07.271Z,13.20
2022-09-10T08:21:07.215Z,15.70
2022-09-10T08:22:11.463Z,17.80
2022-09-10T08:23:08.947Z,16.10
2022-09-10T08:24:07.206Z,11.80
2022-09-10T08:25:07.199Z,15.90
2022-09-10T08:26:07.154Z,15.70
2022-09-10T08:27:07.172Z,11.10
2022-09-10T08:28:07.219Z,12.60
2022-09-10T08:29:07.138Z,14.40
2022-09-10T08:30:07.138Z,11.10
2022-09-10T08:31:07.161Z,11.20
2022-09-10T08:32:07.159Z,10.50
2022-09-10T08:33:07.398Z,12.20
2022-09-10T08:34:07.027Z,12.60
2022-09-10T08:35:07.191Z,9.70
2022-09-10T08:36:07.120Z,11.60
2022-09-10T08:37:07.043Z,8.10
2022-09-10T08:38:07.078Z,11.50
2022-09-10T08:39:08.514Z,8.90
2022-09-10T08:40:08.982Z,10.60
2022-09-10T08:41:07.456Z,9.20
2022-09-10T08:42:07.219Z,11.00
2022-09-10T08:43:07.127Z,8.50
2022-09-10T08:44:06.955Z,8.30
2022-09-10T08:45:06.953Z,9.00
2022-09-10T08:46:07.029Z,9.10
2022-09-10T08:47:06.947Z,8.70
2022-09-10T08:48:07.011Z,16.70
2022-09-10T08:49:06.951Z,10.60
2022-09-10T08:50:06.941Z,11.50
2022-09-10T08:51:06.919Z,8.90
2022-09-10T08:52:06.909Z,12.40
2022-09-10T08:53:06.922Z,10.00
2022-09-10T08:54:06.875Z,11.20
2022-09-10T08:55:06.823Z,8.70
2022-09-10T08:56:06.863Z,12.50
2022-09-10T08:57:06.796Z,8.80
2022-09-10T08:58:06.939Z,9.70
2022-09-10T08:59:06.773Z,7.50
2022-09-10T09:00:06.760Z,9.90
2022-09-10T09:01:07.232Z,9.50
2022-09-10T09:02:06.755Z,12.40
2022-09-10T09:03:06.850Z,11.60
2022-09-10T09:04:06.707Z,9.90
2022-09-10T09:05:06.775Z,8.10
2022-09-10T09:06:06.762Z,7.80
2022-09-10T09:07:06.740Z,8.50
2022-09-10T09:08:06.657Z,7.30
2022-09-10T09:09:06.649Z,9.80
2022-09-10T09:10:06.973Z,7.90
2022-09-10T09:11:06.626Z,8.80
2022-09-10T09:12:06.677Z,8.30
2022-09-10T09:13:06.685Z,11.40
2022-09-10T09:14:06.570Z,10.90
2022-09-10T09:15:08.970Z,11.10
2022-09-10T09:16:07.742Z,7.60
2022-09-10T09:17:06.586Z,11.50
2022-09-10T09:18:06.553Z,9.40
2022-09-10T09:19:06.590Z,12.00
2022-09-10T09:20:06.611Z,8.00
2022-09-10T09:21:06.501Z,5.80
2022-09-10T09:22:06.518Z,8.70
2022-09-10T09:23:06.518Z,7.30
2022-09-10T09:24:14.135Z,8.10
2022-09-10T09:25:08.509Z,8.30
2022-09-10T09:26:06.673Z,9.50
2022-09-10T09:27:06.478Z,8.20
2022-09-10T09:28:06.503Z,5.20
2022-09-10T09:29:06.400Z,7.10
2022-09-10T09:30:07.279Z,8.10
2022-09-10T09:31:09.421Z,7.90
2022-09-10T09:32:07.463Z,6.30
2022-09-10T09:33:06.415Z,7.10
2022-09-10T09:34:06.338Z,6.40
2022-09-10T09:35:06.335Z,7.50
2022-09-10T09:36:06.330Z,6.20
2022-09-10T09:37:06.450Z,5.90
2022-09-10T09:38:06.451Z,8.10
2022-09-10T09:39:06.278Z,5.60
2022-09-10T09:40:06.307Z,5.20
2022-09-10T09:41:06.323Z,9.80
2022-09-10T09:42:06.302Z,7.80
2022-09-10T09:43:06.234Z,7.50
2022-09-10T09:44:06.602Z,6.90
2022-09-10T09:45:06.315Z,7.90
2022-09-10T09:46:06.307Z,4.60
2022-09-10T09:47:06.149Z,8.00
2022-09-10T09:48:06.214Z,7.90
2022-09-10T09:49:06.369Z,5.40
2022-09-10T09:50:06.203Z,5.50
2022-09-10T09:51:06.222Z,6.40
2022-09-10T09:52:06.090Z,7.60
2022-09-10T09:53:06.123Z,5.80
2022-09-10T09:54:39.312Z,6.40
2022-09-10T09:55:14.927Z,6.50
2022-09-10T09:56:08.087Z,6.20
2022-09-10T09:57:06.119Z,7.00
2022-09-10T09:58:06.187Z,6.30
2022-09-10T09:59:06.746Z,6.10
2022-09-10T10:00:06.099Z,5.90
2022-09-10T10:01:06.106Z,6.50
2022-09-10T10:02:06.106Z,5.60
2022-09-10T10:03:06.043Z,4.30
2022-09-10T10:04:06.000Z,6.20
2022-09-10T10:05:05.985Z,5.50
2022-09-10T10:06:06.000Z,5.70
2022-09-10T10:07:05.932Z,7.50
2022-09-10T10:08:06.009Z,6.60
2022-09-10T10:09:06.660Z,6.80
2022-09-10T10:10:05.969Z,5.40
2022-09-10T10:11:06.128Z,3.30
2022-09-10T10:12:05.884Z,5.00
2022-09-10T10:13:05.876Z,8.50
2022-09-10T10:14:05.868Z,5.50
2022-09-10T10:15:05.900Z,6.50
2022-09-10T10:16:05.864Z,6.90
2022-09-10T10:17:05.837Z,6.70
2022-09-10T10:18:05.785Z,5.70
2022-09-10T10:19:05.816Z,6.20
2022-09-10T10:20:05.912Z,5.30
2022-09-10T10:21:05.799Z,5.10
2022-09-10T10:22:05.765Z,4.70
2022-09-10T10:23:05.764Z,7.90
2022-09-10T10:24:05.751Z,7.20
2022-09-10T10:25:05.797Z,7.30
2022-09-10T10:26:05.716Z,5.70
2022-09-10T10:27:06.516Z,4.90
2022-09-10T10:28:05.713Z,5.20
2022-09-10T10:29:05.685Z,6.60
2022-09-10T10:30:05.653Z,5.60
2022-09-10T10:31:05.644Z,7.00
2022-09-10T10:32:06.441Z,7.20
2022-09-10T10:33:07.634Z,6.40
2022-09-10T10:34:05.605Z,5.90
2022-09-10T10:35:05.629Z,5.40
2022-09-10T10:36:05.581Z,5.40
2022-09-10T10:37:05.579Z,5.60
2022-09-10T10:38:05.587Z,5.00
2022-09-10T10:39:05.545Z,3.80
2022-09-10T10:40:05.590Z,5.10
2022-09-10T10:41:05.508Z,3.90
2022-09-10T10:42:05.497Z,6.40
2022-09-10T10:43:05.569Z,7.00
2022-09-10T10:44:05.502Z,5.00
2022-09-10T10:45:05.510Z,4.20
2022-09-10T10:46:08.784Z,6.40
2022-09-10T10:47:06.488Z,4.30
2022-09-10T10:48:05.450Z,2.70
2022-09-10T10:49:05.457Z,4.30
2022-09-10T10:50:05.730Z,5.40
2022-09-10T10:51:05.433Z,9.30
2022-09-10T10:52:05.389Z,4.30
2022-09-10T10:53:05.387Z,6.80
2022-09-10T10:54:05.442Z,6.00
2022-09-10T10:55:05.379Z,4.40
2022-09-10T10:56:05.490Z,5.00
2022-09-10T10:57:05.344Z,5.20
2022-09-10T10:58:05.289Z,5.10
2022-09-10T10:59:05.383Z,2.40
2022-09-10T11:00:05.288Z,5.30
2022-09-10T11:01:06.298Z,4.50
2022-09-10T11:02:05.325Z,4.50
2022-09-10T11:03:05.298Z,5.20
2022-09-10T11:04:05.254Z,3.70
2022-09-10T11:05:05.294Z,4.10
2022-09-10T11:06:05.253Z,3.90
2022-09-10T11:07:05.219Z,3.40
2022-09-10T11:08:05.197Z,5.10
2022-09-10T11:09:05.219Z,3.80
2022-09-10T11:10:05.163Z,5.90
2022-09-10T11:11:05.206Z,4.70
2022-09-10T11:12:05.231Z,3.90
2022-09-10T11:13:05.222Z,5.70
2022-09-10T11:14:05.163Z,4.20
2022-09-10T11:15:05.186Z,5.20
2022-09-10T11:16:05.143Z,4.80
2022-09-10T11:17:05.182Z,4.90
2022-09-10T11:18:05.228Z,4.20
2022-09-10T11:19:05.108Z,5.20
2022-09-10T11:20:27.301Z,6.60
2022-09-10T11:21:07.662Z,5.90
2022-09-10T11:22:05.151Z,4.30
2022-09-10T11:23:05.132Z,4.00
2022-09-10T11:24:05.043Z,4.60
2022-09-10T11:25:05.080Z,6.10
2022-09-10T11:26:05.099Z,4.90
2022-09-10T11:27:05.008Z,5.10
2022-09-10T11:28:05.023Z,3.20
2022-09-10T11:29:05.016Z,4.00
2022-09-10T11:30:05.050Z,3.50
2022-09-10T11:31:05.070Z,4.10
2022-09-10T11:32:04.976Z,3.50
2022-09-10T11:33:04.927Z,5.70
2022-09-10T11:34:04.928Z,6.00
2022-09-10T11:35:04.924Z,4.10
2022-09-10T11:36:04.960Z,5.00
2022-09-10T11:37:04.881Z,4.60
2022-09-10T11:38:04.890Z,3.70
2022-09-10T11:39:04.912Z,2.70
2022-09-10T11:40:06.035Z,2.60
2022-09-10T11:41:04.816Z,2.90
2022-09-10T11:42:04.796Z,2.40
2022-09-10T11:43:04.837Z,1.50
2022-09-10T11:44:04.860Z,1.60
2022-09-10T11:45:04.856Z,4.40
2022-09-10T11:46:04.878Z,1.80
2022-09-10T11:47:04.794Z,1.60
2022-09-10T11:48:04.773Z,1.70
2022-09-10T11:49:04.794Z,2.20
2022-09-10T11:50:04.789Z,1.30
2022-09-10T11:51:04.708Z,3.30
2022-09-10T11:52:04.701Z,2.80
2022-09-10T11:53:04.754Z,1.60
2022-09-10T11:54:05.637Z,2.50
2022-09-10T11:55:04.728Z,1.60
2022-09-10T11:56:05.616Z,2.40
2022-09-10T11:57:05.501Z,2.60
2022-09-10T11:58:04.675Z,3.10
2022-09-10T11:59:04.685Z,2.50
2022-09-10T12:00:04.681Z,3.10
2022-09-10T12:01:04.629Z,2.30
2022-09-10T12:02:04.643Z,2.30
2022-09-10T12:03:04.725Z,1.70
2022-09-10T12:04:04.639Z,4.80
2022-09-10T12:05:04.578Z,3.50
2022-09-10T12:06:04.551Z,3.50
2022-09-10T12:07:04.543Z,3.00
2022-09-10T12:08:04.575Z,4.50
2022-09-10T12:09:04.517Z,2.40
2022-09-10T12:10:04.534Z,2.30
2022-09-10T12:11:04.521Z,3.30
2022-09-10T12:12:04.493Z,3.30
2022-09-10T12:13:04.465Z,3.90
2022-09-10T12:14:04.462Z,5.20
2022-09-10T12:15:04.663Z,5.50
2022-09-10T12:16:04.531Z,4.20
2022-09-10T12:17:04.519Z,3.90
2022-09-10T12:18:04.395Z,3.10
2022-09-10T12:19:04.402Z,4.90
2022-09-10T12:20:04.440Z,3.50
2022-09-10T12:21:04.381Z,4.60
2022-09-10T12:22:04.400Z,4.90
2022-09-10T12:23:04.350Z,7.70
2022-09-10T12:24:04.387Z,7.90
2022-09-10T12:25:04.358Z,7.60
2022-09-10T12:26:04.366Z,7.80
2022-09-10T12:27:04.387Z,7.80
2022-09-10T12:28:04.286Z,6.90
2022-09-10T12:29:04.282Z,6.60
2022-09-10T12:30:04.291Z,5.40
2022-09-10T12:31:04.319Z,2.40
2022-09-10T12:32:04.311Z,4.80
2022-09-10T12:33:04.243Z,5.00
2022-09-10T12:34:04.287Z,6.60
2022-09-10T12:35:04.223Z,5.40
2022-09-10T12:36:04.236Z,4.10
2022-09-10T12:37:04.409Z,3.50
2022-09-10T12:38:04.215Z,4.90
2022-09-10T12:39:04.191Z,2.40
2022-09-10T12:40:04.211Z,3.40
2022-09-10T12:41:04.219Z,3.80
2022-09-10T12:42:04.155Z,1.60
2022-09-10T12:43:04.263Z,1.70
2022-09-10T12:44:04.115Z,5.00
2022-09-10T12:45:04.117Z,3.80
2022-09-10T12:46:04.155Z,2.40
2022-09-10T12:47:04.112Z,4.20
2022-09-10T12:48:04.137Z,3.20
2022-09-10T12:49:04.106Z,4.30
2022-09-10T12:50:04.181Z,3.90
2022-09-10T12:51:04.105Z,3.10
2022-09-10T12:52:04.038Z,2.90
2022-09-10T12:53:04.173Z,2.50
2022-09-10T12:54:04.061Z,4.80
2022-09-10T12:55:04.028Z,4.70
2022-09-10T12:56:04.030Z,3.00
2022-09-10T12:57:04.007Z,3.60
2022-09-10T12:58:04.265Z,2.50
2022-09-10T12:59:04.285Z,4.10
2022-09-10T13:00:03.987Z,2.10
2022-09-10T13:01:03.933Z,5.10
2022-09-10T13:02:04.065Z,3.50
2022-09-10T13:03:03.917Z,2.80
2022-09-10T13:04:03.962Z,2.80
2022-09-10T13:05:03.909Z,5.00
2022-09-10T13:06:03.906Z,2.30
2022-09-10T13:07:03.863Z,3.40
2022-09-10T13:08:03.908Z,3.00
2022-09-10T13:09:03.923Z,3.50
2022-09-10T13:10:03.863Z,3.00
2022-09-10T13:11:03.883Z,3.40